| time (UTC) | temp C | wind direction | speed KPH | gust KPH | rain 1hr cm | rain 24hr cm | rain mn cm | humidity % | barometer mb |
| 20260906132122 | 25 | 332 | 6.4 | 9.7 | 0.00 | 3.91 | 0.03 | 99 | 1011.8 |
| 20260906131122 | 24 | 348 | 6.4 | 9.7 | 0.00 | 3.91 | 0.03 | 99 | 1011.7 |
| 20260906130121 | 23 | 326 | 4.8 | 8.0 | 0.00 | 3.91 | 0.03 | 99 | 1011.6 |
| 20260906125121 | 23 | 349 | 4.8 | 9.7 | 0.00 | 3.91 | 0.03 | 99 | 1011.8 |
| 20260906124121 | 23 | 331 | 6.4 | 9.7 | 0.00 | 3.91 | 0.03 | 99 | 1011.6 |
| 20260906123142 | 22 | 333 | 4.8 | 8.0 | 0.00 | 3.91 | 0.03 | 99 | 1011.6 |
| 20260906122121 | 22 | 335 | 6.4 | 8.0 | 0.00 | 3.91 | 0.03 | 99 | 1011.7 |
| 20260906121121 | 22 | 311 | 3.2 | 4.8 | 0.00 | 3.91 | 0.03 | 99 | 1011.5 |
| 20260906120126 | 22 | 321 | 3.2 | 8.0 | 0.00 | 3.91 | 0.03 | 99 | 1011.5 |
| 20260906120122 | 22 | 323 | 3.2 | 8.0 | 0.00 | 3.91 | 0.03 | 99 | 1011.5 |
| 20260906115121 | 21 | 342 | 1.6 | 6.4 | 0.00 | 3.91 | 0.03 | 99 | 1011.5 |
| 20260906114121 | 21 | 315 | 0.0 | 0.0 | 0.00 | 3.91 | 0.03 | 99 | 1011.5 |
| 20260906113121 | 21 | 315 | 0.0 | 0.0 | 0.00 | 3.91 | 0.03 | 99 | 1011.2 |
| 20260906112122 | 21 | 360 | 0.0 | 0.0 | 0.00 | 3.91 | 0.03 | 99 | 1011.3 |
| 20260906111142 | 21 | 338 | 0.0 | 0.0 | 0.00 | 3.91 | 0.03 | 99 | 1011.1 |
| 20260906110121 | 21 | 360 | 0.0 | 0.0 | 0.00 | 3.91 | 0.03 | 99 | 1011.0 |
| 20260906105121 | 21 | 315 | 0.0 | 0.0 | 0.00 | 3.91 | 0.03 | 99 | 1010.7 |
| 20260906104121 | 21 | 248 | 0.0 | 0.0 | 0.00 | 3.91 | 0.03 | 99 | 1010.7 |
| 20260906103121 | 21 | 45 | 0.0 | 0.0 | 0.00 | 3.91 | 0.03 | 99 | 1010.7 |
| 20260906102142 | 21 | 45 | 0.0 | 0.0 | 0.00 | 3.91 | 0.03 | 99 | 1010.6 |
| 20260906101121 | 21 | 23 | 0.0 | 0.0 | 0.00 | 3.91 | 0.03 | 99 | 1010.2 |
| 20260906100121 | 21 | 315 | 0.0 | 0.0 | 0.00 | 3.91 | 0.03 | 99 | 1010.1 |
| 20260906095121 | 21 | 270 | 0.0 | 0.0 | 0.00 | 3.91 | 0.03 | 99 | 1010.1 |
| 20260906094121 | 21 | 23 | 0.0 | 0.0 | 0.00 | 3.91 | 0.03 | 99 | 1010.1 |
| 20260906093121 | 21 | 270 | 0.0 | 0.0 | 0.00 | 3.91 | 0.03 | 99 | 1010.0 |
| 20260906092121 | 21 | 270 | 0.0 | 0.0 | 0.00 | 3.91 | 0.03 | 99 | 1009.9 |
| 20260906091121 | 21 | 360 | 0.0 | 0.0 | 0.00 | 3.91 | 0.03 | 99 | 1009.9 |
| 20260906090121 | 21 | 315 | 0.0 | 0.0 | 0.00 | 3.91 | 0.03 | 99 | 1010.0 |
| 20260906085121 | 21 | 315 | 0.0 | 0.0 | 0.00 | 3.91 | 0.03 | 99 | 1009.9 |
| 20260906084121 | 21 | 315 | 0.0 | 0.0 | 0.00 | 3.91 | 0.03 | 99 | 1009.7 |
| 20260906083121 | 21 | 23 | 0.0 | 0.0 | 0.00 | 3.91 | 0.03 | 99 | 1009.7 |
| 20260906082142 | 21 | 23 | 0.0 | 0.0 | 0.00 | 3.91 | 0.03 | 99 | 1010.0 |
| 20260906081142 | 21 | 293 | 0.0 | 0.0 | 0.00 | 3.91 | 0.03 | 99 | 1009.9 |
| 20260906080121 | 21 | 293 | 0.0 | 0.0 | 0.03 | 3.91 | 0.03 | 99 | 1009.9 |
| 20260906075121 | 21 | 360 | 0.0 | 0.0 | 0.03 | 3.91 | 0.03 | 99 | 1009.9 |
| 20260906074121 | 21 | 270 | 0.0 | 0.0 | 0.03 | 3.91 | 0.03 | 99 | 1009.9 |
| 20260906073121 | 21 | 315 | 0.0 | 0.0 | 0.03 | 3.91 | 0.03 | 99 | 1009.8 |
| 20260906072121 | 21 | 180 | 0.0 | 0.0 | 0.03 | 3.91 | 0.03 | 99 | 1009.8 |
| 20260906071142 | 21 | 23 | 0.0 | 0.0 | 0.03 | 3.91 | 0.03 | 99 | 1009.8 |
| 20260906070124 | 21 | 270 | 0.0 | 0.0 | 0.00 | 3.89 | 0.00 | 99 | 1009.8 |
| 20260906065123 | 21 | 315 | 0.0 | 0.0 | 0.00 | 3.89 | 0.00 | 99 | 1010.0 |
| 20260906064125 | 21 | 23 | 0.0 | 0.0 | 0.00 | 3.89 | 0.00 | 99 | 1010.0 |
| 20260906063143 | 21 | 203 | 0.0 | 0.0 | 0.00 | 3.89 | 0.00 | 99 | 1010.2 |
| 20260906062122 | 21 | 23 | 0.0 | 0.0 | 0.00 | 3.89 | 0.00 | 99 | 1010.1 |
| 20260906061121 | 21 | 45 | 0.0 | 0.0 | 0.00 | 3.89 | 0.00 | 99 | 1010.5 |
| 20260906060122 | 22 | 23 | 0.0 | 0.0 | 0.00 | 3.89 | 0.00 | 99 | 1010.4 |
| 20260906055121 | 21 | 45 | 0.0 | 0.0 | 0.00 | 3.89 | 0.00 | 99 | 1010.7 |
| 20260906054124 | 21 | 23 | 0.0 | 0.0 | 0.00 | 3.89 | 0.00 | 99 | 1010.6 |
| 20260906053124 | 21 | 113 | 0.0 | 0.0 | 0.00 | 3.89 | 0.00 | 99 | 1010.6 |
| 20260906052124 | 21 | 113 | 0.0 | 0.0 | 0.00 | 3.89 | 0.00 | 99 | 1010.9 |
| 20260906051122 | 21 | 113 | 0.0 | 0.0 | 0.00 | 3.89 | 0.00 | 99 | 1011.0 |
| 20260906050142 | 21 | 328 | 0.0 | 4.8 | 0.00 | 3.89 | 0.00 | 99 | 1010.8 |
| 20260906045123 | 21 | 315 | 0.0 | 0.0 | 0.00 | 3.89 | 0.00 | 99 | 1010.6 |
| 20260906044121 | 21 | 293 | 0.0 | 0.0 | 0.00 | 3.89 | 0.00 | 99 | 1010.6 |
| 20260906043142 | 21 | 158 | 0.0 | 0.0 | 0.00 | 3.89 | 0.00 | 99 | 1010.6 |
| 20260906042124 | 21 | 248 | 0.0 | 0.0 | 0.00 | 3.89 | 0.00 | 99 | 1010.5 |
| 20260906041123 | 21 | 180 | 0.0 | 0.0 | 0.00 | 3.89 | 0.00 | 99 | 1010.4 |
| 20260906040124 | 21 | 337 | 0.0 | 3.2 | 0.00 | 3.89 | 0.00 | 99 | 1010.6 |
| 20260906035122 | 21 | 316 | 4.8 | 8.0 | 0.00 | 3.89 | 3.89 | 99 | 1010.7 |
| 20260906034121 | 21 | 13 | 1.6 | 6.4 | 0.00 | 3.89 | 3.89 | 99 | 1010.7 |
| 20260906033143 | 21 | 304 | 1.6 | 8.0 | 0.00 | 3.89 | 3.89 | 99 | 1010.7 |
| 20260906032121 | 21 | 332 | 3.2 | 6.4 | 0.00 | 3.89 | 3.89 | 99 | 1010.5 |
| 20260906031122 | 22 | 297 | 4.8 | 9.7 | 0.00 | 3.89 | 3.89 | 99 | 1011.0 |
| 20260906030124 | 22 | 302 | 3.2 | 6.4 | 0.00 | 3.89 | 3.89 | 99 | 1011.0 |
| 20260906025123 | 22 | 328 | 1.6 | 6.4 | 0.00 | 3.89 | 3.89 | 99 | 1011.0 |
| 20260906024123 | 22 | 180 | 0.0 | 0.0 | 0.00 | 3.89 | 3.89 | 99 | 1011.0 |
| 20260906023123 | 22 | 225 | 0.0 | 0.0 | 0.00 | 3.89 | 3.89 | 99 | 1011.0 |
| 20260906022143 | 22 | 265 | 1.6 | 4.8 | 0.00 | 3.89 | 3.89 | 99 | 1011.0 |
| 20260906021122 | 22 | 213 | 1.6 | 6.4 | 0.00 | 3.89 | 3.89 | 99 | 1011.0 |
| 20260906020121 | 22 | 193 | 1.6 | 4.8 | 0.00 | 3.89 | 3.89 | 99 | 1011.0 |
| 20260906015142 | 22 | 175 | 1.6 | 6.4 | 0.00 | 3.89 | 3.89 | 99 | 1011.3 |
| 20260906014142 | 22 | 209 | 1.6 | 6.4 | 0.00 | 3.89 | 3.89 | 99 | 1011.3 |
| 20260906013145 | 22 | 197 | 3.2 | 9.7 | 0.00 | 3.89 | 3.89 | 99 | 1011.0 |
| 20260906012124 | 22 | 188 | 6.4 | 11.3 | 0.00 | 3.89 | 3.89 | 99 | 1010.6 |
| 20260906011123 | 22 | 201 | 6.4 | 9.7 | 0.00 | 3.89 | 3.89 | 99 | 1010.3 |
| 20260906010142 | 22 | 191 | 4.8 | 9.7 | 0.03 | 3.89 | 3.89 | 99 | 1010.3 |
| 20260906005123 | 22 | 191 | 3.2 | 6.4 | 0.05 | 3.89 | 3.89 | 99 | 1009.6 |
| 20260906004121 | 22 | 113 | 0.0 | 0.0 | 0.10 | 3.89 | 3.89 | 99 | 1009.9 |
| 20260906003123 | 22 | 270 | 0.0 | 3.2 | 0.13 | 3.89 | 3.89 | 99 | 1009.9 |
| 20260906002124 | 22 | 178 | 3.2 | 6.4 | 0.15 | 3.89 | 3.89 | 99 | 1009.4 |
| 20260906001121 | 22 | 193 | 3.2 | 6.4 | 0.15 | 3.89 | 3.89 | 99 | 1010.0 |
| 20260906000122 | 22 | 188 | 1.6 | 3.2 | 0.13 | 3.86 | 3.86 | 99 | 1009.7 |
| 20260905235121 | 22 | 200 | 3.2 | 11.3 | 0.56 | 3.84 | 3.84 | 99 | 1009.9 |
| 20260905234122 | 22 | 128 | 4.8 | 11.3 | 2.31 | 3.78 | 3.78 | 99 | 1009.9 |
| 20260905233142 | 22 | 189 | 4.8 | 8.0 | 3.76 | 3.76 | 3.76 | 99 | 1009.4 |
| 20260905232142 | 22 | 172 | 4.8 | 11.3 | 3.73 | 3.73 | 3.73 | 99 | 1008.8 |
| 20260905231142 | 22 | 97 | 4.8 | 8.0 | 3.73 | 3.73 | 3.73 | 99 | 1009.1 |
| 20260905230126 | 22 | 63 | 4.8 | 11.3 | 3.73 | 3.73 | 3.73 | 99 | 1012.8 |
| 20260905230122 | 22 | 56 | 6.4 | 11.3 | 3.73 | 3.73 | 3.73 | 99 | 1012.8 |
| 20260905225124 | 22 | 324 | 11.3 | 29.0 | 3.28 | 3.28 | 3.28 | 97 | 1008.4 |
| 20260905224128 | 25 | 242 | 8.0 | 14.5 | 1.63 | 1.63 | 1.63 | 97 | 1008.4 |
| 20260905223126 | 26 | 353 | 17.7 | 40.2 | 0.00 | 0.00 | 0.00 | 85 | 1008.4 |
| 20260905222121 | 28 | 350 | 8.0 | 17.7 | 0.00 | 0.00 | 0.00 | 80 | 1009.0 |
| 20260905221122 | 30 | 37 | 6.4 | 14.5 | 0.00 | 0.00 | 0.00 | 78 | 1008.1 |
| 20260905220122 | 31 | 59 | 6.4 | 14.5 | 0.00 | 0.00 | 0.00 | 76 | 1008.1 |
| 20260905215121 | 33 | 107 | 3.2 | 4.8 | 0.00 | 0.00 | 0.00 | 75 | 1007.8 |
| 20260905214146 | 34 | 121 | 1.6 | 3.2 | 0.00 | 0.00 | 0.00 | 72 | 1007.8 |
| 20260905213145 | 33 | 118 | 1.6 | 3.2 | 0.00 | 0.00 | 0.00 | 75 | 1007.5 |
| 20260905212124 | 35 | 194 | 3.2 | 4.8 | 0.00 | 0.00 | 0.00 | 65 | 1007.2 |
| 20260905211121 | 35 | 33 | 1.6 | 3.2 | 0.00 | 0.00 | 0.00 | 63 | 1007.3 |
| 20260905210121 | 35 | 190 | 4.8 | 8.0 | 0.00 | 0.00 | 0.00 | 59 | 1007.4 |
| 20260905205123 | 36 | 192 | 4.8 | 8.0 | 0.00 | 0.00 | 0.00 | 59 | 1007.2 |
| 20260905204121 | 36 | 196 | 4.8 | 8.0 | 0.00 | 0.00 | 0.00 | 59 | 1007.2 |
| 20260905203121 | 36 | 148 | 4.8 | 11.3 | 0.00 | 0.00 | 0.00 | 59 | 1007.0 |
| 20260905202124 | 37 | 334 | 4.8 | 11.3 | 0.00 | 0.00 | 0.00 | 56 | 1007.1 |
| 20260905201125 | 37 | 221 | 4.8 | 8.0 | 0.00 | 0.00 | 0.00 | 61 | 1007.4 |
| 20260905200126 | 37 | 141 | 4.8 | 9.7 | 0.00 | 0.00 | 0.00 | 57 | 1007.5 |
| 20260905195124 | 37 | 219 | 4.8 | 8.0 | 0.00 | 0.00 | 0.00 | 58 | 1007.7 |
| 20260905194121 | 37 | 207 | 4.8 | 8.0 | 0.00 | 0.00 | 0.00 | 60 | 1007.7 |
| 20260905193123 | 37 | 200 | 6.4 | 9.7 | 0.00 | 0.00 | 0.00 | 58 | 1008.0 |
| 20260905192122 | 37 | 169 | 4.8 | 6.4 | 0.00 | 0.00 | 0.00 | 60 | 1008.2 |
| 20260905191122 | 36 | 238 | 3.2 | 8.0 | 0.00 | 0.00 | 0.00 | 59 | 1008.4 |
| 20260905190121 | 36 | 335 | 4.8 | 8.0 | 0.00 | 0.00 | 0.00 | 59 | 1008.6 |
| 20260905185121 | 37 | 323 | 4.8 | 8.0 | 0.00 | 0.00 | 0.00 | 59 | 1008.8 |
| 20260905184121 | 37 | 184 | 4.8 | 9.7 | 0.00 | 0.00 | 0.00 | 59 | 1008.8 |
| 20260905183143 | 36 | 175 | 6.4 | 12.9 | 0.00 | 0.00 | 0.00 | 64 | 1008.8 |
| 20260905182121 | 36 | 317 | 3.2 | 6.4 | 0.00 | 0.00 | 0.00 | 62 | 1009.3 |
| 20260905181121 | 37 | 289 | 4.8 | 8.0 | 0.00 | 0.00 | 0.00 | 60 | 1009.5 |
| 20260905180121 | 36 | 309 | 4.8 | 9.7 | 0.00 | 0.00 | 0.00 | 62 | 1009.7 |
| 20260905175121 | 36 | 305 | 6.4 | 11.3 | 0.00 | 0.00 | 0.00 | 63 | 1009.8 |
| 20260905174121 | 36 | 261 | 6.4 | 12.9 | 0.00 | 0.00 | 0.00 | 61 | 1009.8 |
| 20260905173142 | 36 | 295 | 6.4 | 9.7 | 0.00 | 0.00 | 0.00 | 61 | 1009.9 |
| 20260905172121 | 36 | 325 | 6.4 | 11.3 | 0.00 | 0.00 | 0.00 | 65 | 1010.1 |
| 20260905171123 | 36 | 313 | 6.4 | 14.5 | 0.00 | 0.00 | 0.00 | 62 | 1010.3 |
| 20260905170121 | 35 | 169 | 4.8 | 8.0 | 0.00 | 0.00 | 0.00 | 68 | 1010.3 |
| 20260905165122 | 35 | 269 | 4.8 | 12.9 | 0.00 | 0.00 | 0.00 | 67 | 1010.6 |
| 20260905164334 | 35 | 236 | 6.4 | 16.1 | 0.00 | 0.00 | 0.00 | 68 | 1010.6 |
| 20260905163122 | 35 | 207 | 8.0 | 14.5 | 0.00 | 0.00 | 0.00 | 69 | 1010.7 |
| 20260905162122 | 35 | 172 | 6.4 | 9.7 | 0.00 | 0.00 | 0.00 | 71 | 1011.0 |
| 20260905161121 | 35 | 315 | 6.4 | 14.5 | 0.00 | 0.00 | 0.00 | 70 | 1011.3 |
| 20260905160121 | 35 | 223 | 6.4 | 14.5 | 0.00 | 0.00 | 0.00 | 70 | 1011.4 |
| 20260905155121 | 33 | 165 | 8.0 | 14.5 | 0.00 | 0.00 | 0.00 | 71 | 1011.3 |
| 20260905154121 | 34 | 97 | 4.8 | 9.7 | 0.00 | 0.00 | 0.00 | 71 | 1011.3 |
| 20260905153142 | 34 | 292 | 4.8 | 9.7 | 0.00 | 0.00 | 0.00 | 73 | 1011.4 |
| 20260905152142 | 33 | 186 | 8.0 | 14.5 | 0.00 | 0.00 | 0.00 | 73 | 1011.4 |
| 20260905151122 | 33 | 237 | 6.4 | 9.7 | 0.00 | 0.00 | 0.00 | 73 | 1011.4 |
| 20260905150121 | 33 | 159 | 8.0 | 12.9 | 0.00 | 0.00 | 0.00 | 76 | 1011.4 |
| 20260905145121 | 32 | 164 | 6.4 | 14.5 | 0.00 | 0.00 | 0.00 | 76 | 1011.4 |
| 20260905144122 | 32 | 188 | 8.0 | 19.3 | 0.00 | 0.00 | 0.00 | 77 | 1011.4 |
| 20260905143123 | 32 | 181 | 6.4 | 17.7 | 0.00 | 0.00 | 0.00 | 79 | 1011.5 |
| 20260905142121 | 32 | 186 | 8.0 | 17.7 | 0.00 | 0.00 | 0.00 | 79 | 1011.4 |
| 20260905141121 | 32 | 318 | 4.8 | 12.9 | 0.00 | 0.00 | 0.00 | 79 | 1011.5 |
| 20260905140122 | 31 | 173 | 4.8 | 8.0 | 0.00 | 0.00 | 0.00 | 81 | 1011.6 |
| 20260905135123 | 31 | 200 | 4.8 | 8.0 | 0.00 | 0.00 | 0.00 | 82 | 1011.7 |
| 20260905134121 | 31 | 151 | 4.8 | 8.0 | 0.00 | 0.00 | 0.00 | 86 | 1011.7 |
| 20260905133121 | 30 | 151 | 4.8 | 11.3 | 0.00 | 0.00 | 0.00 | 86 | 1011.9 |